SARC/CNQ METAR and TAF weather

Enter ICAO airport designator
Station Type Date Time Source
SARC METAR 2019/06/26 18:00 UTC NOAA

SARC 261800Z 14006KT CAVOK 15/M01 Q1017


Station Type Date Time Source
SARC Decoded METAR 2019/06/26 18:00 UTC NOAA

Corrientes Aero., Argentina (SARC) 27-27S 058-46W 62M
Jun 26, 2019 - 02:00 PM EDT / 2019.06.26 1800 UTC
Wind: from the SE (140 degrees) at 7 MPH (6 KT):0
Visibility: greater than 7 mile(s):0
Temperature: 59 F (15 C)
Dew Point: 30 F (-1 C)
Relative Humidity: 33%
Pressure (altimeter): 30.03 in. Hg (1017 hPa)
ob: SARC 261800Z 14006KT CAVOK 15/M01 Q1017
cycle: 18

Station Type Date Time Source
SARC TAF 2019/03/09 18:39 UTC NOAA

TAF TAF COR SARC 091700Z 0918/1018 16010KT 4000 +DZ OVC015 TX26/1018Z TN17/1009Z 0919/0921 9999 BKN015 BKN020
BECMG 0923/1001 09005KT CAVOK
TEMPO 1005/1011 9999 SCT025 BKN100

Example: see airport list